Ana Sayfa
METAR-TAF:

METAR-TAF

Havaalanları :

Suceava, Romanya

Enlem: 47-39N, Boylam: 026-15E, yükseklik: 351 m

Güncel hava durumu gözlemi

Rapor saat 21:30 UTC de 40 dakika önce yapıldı.
Rüzgar güneydan 6 kt
Sıcaklık 6°C
Nem 65%
Basınç 1024 hPa
Görüş mesafesi 10 km veya daha fazla
1500 m altında bulut yok ve kümülonimbus yok

METAR: LRSV 202130Z 19006KT CAVOK 06/M00 Q1024

Saat: 01:10 (22:10 UTC)

Tahmin

Rapor saat 20:00 UTC de 2 saat ve 10 dakika önce yapıldı.
Ayın 20'si saat 21 UTC'den ayın 21'si saat 06 UTC'ye kadar geçerli Tahmin
Rüzgar güney/güneybatıdan 7 kt
Görüş mesafesi 10 km veya daha fazla
1500 m altında bulut yok ve kümülonimbus yok

TAF: LRSV 202000Z 2021/2106 20007KT CAVOK

4.000'den fazla havaalanı için hava durumu gözlemleri ve tahminleri (METAR ve TAF raporları).

Kullanılabilir istasyonlar harita üzerinde sarı ve kırmızı noktalarla gösterilir.

İstasyonun adını görmek için fareyi noktanın üzerinde gezdirin.

Sonrasında hava gözlem ve tahminlerini görmek için tıklayın.

Haritayı değiştirmek için: yaklaştırmak için siyah artı işaretli yeşil düğmeye ve uzaklaştırmak için de eksi işaretli düğmeye hızla tıklayın; bitişik haritalar için yeşil okları kullanın.


METAR-TAF: